sensor_id;sensor_type;location;lat;lon;timestamp;pressure;altitude;pressure_sealevel;temperature;humidity
74895;BME280;63447;49.446;8.666;2023-09-07T00:01:43;100626.25;;;19.49;63.36
74895;BME280;63447;49.446;8.666;2023-09-07T00:04:09;100637.44;;;19.49;63.08
74895;BME280;63447;49.446;8.666;2023-09-07T00:06:35;100631.50;;;19.54;62.97
74895;BME280;63447;49.446;8.666;2023-09-07T00:09:03;100624.72;;;19.55;62.72
74895;BME280;63447;49.446;8.666;2023-09-07T00:11:31;100625.94;;;19.57;63.09
74895;BME280;63447;49.446;8.666;2023-09-07T00:13:57;100618.75;;;19.60;62.09
74895;BME280;63447;49.446;8.666;2023-09-07T00:16:26;100625.56;;;19.62;62.45
74895;BME280;63447;49.446;8.666;2023-09-07T00:18:51;100630.69;;;19.53;62.96
74895;BME280;63447;49.446;8.666;2023-09-07T00:21:17;100626.72;;;19.58;63.16
74895;BME280;63447;49.446;8.666;2023-09-07T00:23:47;100639.13;;;19.57;62.37
74895;BME280;63447;49.446;8.666;2023-09-07T00:26:12;100629.19;;;19.63;62.30
74895;BME280;63447;49.446;8.666;2023-09-07T00:28:38;100623.94;;;19.58;62.49
74895;BME280;63447;49.446;8.666;2023-09-07T00:31:06;100633.53;;;19.57;63.51
74895;BME280;63447;49.446;8.666;2023-09-07T00:33:31;100624.72;;;19.55;62.86
74895;BME280;63447;49.446;8.666;2023-09-07T00:36:00;100634.78;;;19.63;62.45
74895;BME280;63447;49.446;8.666;2023-09-07T00:38:28;100631.97;;;19.63;62.54
74895;BME280;63447;49.446;8.666;2023-09-07T00:40:54;100638.78;;;19.62;62.19
74895;BME280;63447;49.446;8.666;2023-09-07T00:43:19;100620.34;;;19.57;62.32
74895;BME280;63447;49.446;8.666;2023-09-07T00:45:44;100637.94;;;19.58;63.05
74895;BME280;63447;49.446;8.666;2023-09-07T00:48:12;100633.16;;;19.62;62.95
74895;BME280;63447;49.446;8.666;2023-09-07T00:50:37;100632.34;;;19.58;62.48
74895;BME280;63447;49.446;8.666;2023-09-07T00:53:06;100640.31;;;19.56;62.71
74895;BME280;63447;49.446;8.666;2023-09-07T00:55:33;100628.97;;;19.42;63.31
74895;BME280;63447;49.446;8.666;2023-09-07T00:58:00;100621.22;;;19.28;63.55
74895;BME280;63447;49.446;8.666;2023-09-07T01:00:26;100633.78;;;19.45;62.92
74895;BME280;63447;49.446;8.666;2023-09-07T01:02:54;100634.63;;;19.49;63.01
74895;BME280;63447;49.446;8.666;2023-09-07T01:05:30;100629.88;;;19.53;61.47
74895;BME280;63447;49.446;8.666;2023-09-07T01:08:18;100631.09;;;19.55;61.54
74895;BME280;63447;49.446;8.666;2023-09-07T01:10:48;100629.19;;;19.63;60.75
74895;BME280;63447;49.446;8.666;2023-09-07T01:13:13;100612.03;;;19.68;60.79
74895;BME280;63447;49.446;8.666;2023-09-07T01:15:41;100620.88;;;19.77;60.80
74895;BME280;63447;49.446;8.666;2023-09-07T01:18:07;100624.53;;;19.81;60.32
74895;BME280;63447;49.446;8.666;2023-09-07T01:20:34;100608.19;;;19.90;59.16
74895;BME280;63447;49.446;8.666;2023-09-07T01:23:03;100618.28;;;20.06;59.10
74895;BME280;63447;49.446;8.666;2023-09-07T01:25:29;100617.47;;;19.98;60.32
74895;BME280;63447;49.446;8.666;2023-09-07T01:27:59;100613.41;;;19.92;60.18
74895;BME280;63447;49.446;8.666;2023-09-07T01:30:27;100608.78;;;20.17;57.21
74895;BME280;63447;49.446;8.666;2023-09-07T01:32:53;100623.22;;;20.30;56.89
74895;BME280;63447;49.446;8.666;2023-09-07T01:35:19;100621.59;;;20.22;58.37
74895;BME280;63447;49.446;8.666;2023-09-07T01:37:47;100621.59;;;20.22;58.96
74895;BME280;63447;49.446;8.666;2023-09-07T01:40:12;100625.97;;;20.16;59.55
74895;BME280;63447;49.446;8.666;2023-09-07T01:42:38;100606.66;;;20.00;59.56
74895;BME280;63447;49.446;8.666;2023-09-07T01:45:03;100619.09;;;20.06;60.16
74895;BME280;63447;49.446;8.666;2023-09-07T01:47:29;100594.94;;;19.84;60.75
74895;BME280;63447;49.446;8.666;2023-09-07T01:49:56;100615.00;;;19.89;60.23
74895;BME280;63447;49.446;8.666;2023-09-07T01:52:22;100624.88;;;19.76;61.71
74895;BME280;63447;49.446;8.666;2023-09-07T01:54:47;100632.88;;;19.78;61.83
74895;BME280;63447;49.446;8.666;2023-09-07T01:57:12;100611.22;;;19.68;62.19
74895;BME280;63447;49.446;8.666;2023-09-07T01:59:38;100621.09;;;19.54;62.31
74895;BME280;63447;49.446;8.666;2023-09-07T02:02:05;100624.75;;;19.58;62.01
74895;BME280;63447;49.446;8.666;2023-09-07T02:04:33;100625.94;;;19.57;62.19
74895;BME280;63447;49.446;8.666;2023-09-07T02:07:00;100624.56;;;19.41;62.84
74895;BME280;63447;49.446;8.666;2023-09-07T02:09:26;100625.41;;;19.45;62.82
74895;BME280;63447;49.446;8.666;2023-09-07T02:11:51;100628.19;;;19.45;63.11
74895;BME280;63447;49.446;8.666;2023-09-07T02:14:16;100626.38;;;19.22;63.49
74895;BME280;63447;49.446;8.666;2023-09-07T02:16:42;100617.41;;;19.06;64.21
74895;BME280;63447;49.446;8.666;2023-09-07T02:19:07;100613.47;;;19.11;63.62
74895;BME280;63447;49.446;8.666;2023-09-07T02:21:32;100604.31;;;19.14;63.79
74895;BME280;63447;49.446;8.666;2023-09-07T02:24:00;100605.97;;;19.18;62.95
74895;BME280;63447;49.446;8.666;2023-09-07T02:26:25;100605.97;;;19.18;63.27
74895;BME280;63447;49.446;8.666;2023-09-07T02:28:53;100608.75;;;19.18;63.05
74895;BME280;63447;49.446;8.666;2023-09-07T02:31:18;100599.88;;;19.09;63.83
74895;BME280;63447;49.446;8.666;2023-09-07T02:33:44;100609.50;;;19.12;63.78
74895;BME280;63447;49.446;8.666;2023-09-07T02:36:14;100609.19;;;19.20;63.18
74895;BME280;63447;49.446;8.666;2023-09-07T02:38:40;100602.44;;;19.28;62.09
74895;BME280;63447;49.446;8.666;2023-09-07T02:41:05;100605.75;;;19.38;62.45
74895;BME280;63447;49.446;8.666;2023-09-07T02:43:31;100599.38;;;19.41;62.66
74895;BME280;63447;49.446;8.666;2023-09-07T02:45:58;100594.59;;;19.41;62.58
74895;BME280;63447;49.446;8.666;2023-09-07T02:48:24;100596.16;;;19.39;62.89
74895;BME280;63447;49.446;8.666;2023-09-07T02:50:49;100591.75;;;19.85;60.36
74895;BME280;63447;49.446;8.666;2023-09-07T02:53:15;100595.75;;;19.84;60.47
74895;BME280;63447;49.446;8.666;2023-09-07T02:55:41;100599.50;;;20.10;59.80
74895;BME280;63447;49.446;8.666;2023-09-07T02:58:06;100603.22;;;20.28;59.36
74895;BME280;63447;49.446;8.666;2023-09-07T03:00:31;100594.09;;;20.38;59.25
74895;BME280;63447;49.446;8.666;2023-09-07T03:02:57;100593.47;;;20.77;57.50
74895;BME280;63447;49.446;8.666;2023-09-07T03:05:26;100595.84;;;20.82;57.45
74895;BME280;63447;49.446;8.666;2023-09-07T03:07:51;100577.50;;;21.02;56.10
74895;BME280;63447;49.446;8.666;2023-09-07T03:10:17;100597.13;;;21.09;56.33
74895;BME280;63447;49.446;8.666;2023-09-07T03:12:42;100591.53;;;21.13;56.15
74895;BME280;63447;49.446;8.666;2023-09-07T03:15:10;100594.00;;;21.25;55.86
74895;BME280;63447;49.446;8.666;2023-09-07T03:17:35;100600.41;;;21.32;55.60
74895;BME280;63447;49.446;8.666;2023-09-07T03:20:01;100602.00;;;21.41;55.37
74895;BME280;63447;49.446;8.666;2023-09-07T03:22:33;100585.16;;;21.33;55.53
74895;BME280;63447;49.446;8.666;2023-09-07T03:24:58;100590.78;;;21.44;55.31
74895;BME280;63447;49.446;8.666;2023-09-07T03:27:26;100589.19;;;21.47;54.91
74895;BME280;63447;49.446;8.666;2023-09-07T03:29:51;100597.22;;;21.48;55.12
74895;BME280;63447;49.446;8.666;2023-09-07T03:32:16;100601.63;;;21.46;55.30
74895;BME280;63447;49.446;8.666;2023-09-07T03:34:44;100603.22;;;21.47;55.30
74895;BME280;63447;49.446;8.666;2023-09-07T03:37:12;100606.00;;;21.36;55.51
74895;BME280;63447;49.446;8.666;2023-09-07T03:39:39;100600.31;;;21.08;56.61
74895;BME280;63447;49.446;8.666;2023-09-07T03:42:05;100609.47;;;20.76;58.04
74895;BME280;63447;49.446;8.666;2023-09-07T03:44:30;100589.31;;;20.42;58.93
74895;BME280;63447;49.446;8.666;2023-09-07T03:46:56;100601.91;;;20.11;60.40
74895;BME280;63447;49.446;8.666;2023-09-07T03:49:21;100616.63;;;19.94;60.62
74895;BME280;63447;49.446;8.666;2023-09-07T03:51:46;100611.25;;;19.71;62.17
74895;BME280;63447;49.446;8.666;2023-09-07T03:54:12;100609.09;;;19.54;62.55
74895;BME280;63447;49.446;8.666;2023-09-07T03:56:39;100611.31;;;19.34;63.47
74895;BME280;63447;49.446;8.666;2023-09-07T03:59:05;100617.91;;;19.15;64.51
74895;BME280;63447;49.446;8.666;2023-09-07T04:01:30;100618.59;;;19.05;64.62
74895;BME280;63447;49.446;8.666;2023-09-07T04:03:58;100623.34;;;19.01;65.25
74895;BME280;63447;49.446;8.666;2023-09-07T04:06:25;100618.38;;;18.84;65.82
74895;BME280;63447;49.446;8.666;2023-09-07T04:08:51;100613.53;;;18.81;65.46
74895;BME280;63447;49.446;8.666;2023-09-07T04:11:16;100621.81;;;18.70;66.44
74895;BME280;63447;49.446;8.666;2023-09-07T04:13:41;100625.69;;;18.62;67.56
74895;BME280;63447;49.446;8.666;2023-09-07T04:16:08;100614.34;;;18.51;67.51
74895;BME280;63447;49.446;8.666;2023-09-07T04:18:34;100626.97;;;18.38;67.83
74895;BME280;63447;49.446;8.666;2023-09-07T04:21:06;100628.16;;;18.37;67.73
74895;BME280;63447;49.446;8.666;2023-09-07T04:23:31;100628.47;;;18.32;68.31
74895;BME280;63447;49.446;8.666;2023-09-07T04:26:07;100614.41;;;18.25;68.59
74895;BME280;63447;49.446;8.666;2023-09-07T04:28:33;100628.41;;;18.28;68.26
74895;BME280;63447;49.446;8.666;2023-09-07T04:31:02;100635.13;;;18.24;68.72
74895;BME280;63447;49.446;8.666;2023-09-07T04:33:30;100631.59;;;18.27;68.62
74895;BME280;63447;49.446;8.666;2023-09-07T04:35:56;100634.81;;;18.29;68.91
74895;BME280;63447;49.446;8.666;2023-09-07T04:38:21;100643.63;;;18.31;68.88
74895;BME280;63447;49.446;8.666;2023-09-07T04:40:46;100633.19;;;18.28;69.02
74895;BME280;63447;49.446;8.666;2023-09-07T04:43:12;100646.84;;;18.33;68.73
74895;BME280;63447;49.446;8.666;2023-09-07T04:45:46;100636.03;;;18.31;68.79
74895;BME280;63447;49.446;8.666;2023-09-07T04:48:12;100638.34;;;18.26;68.82
74895;BME280;63447;49.446;8.666;2023-09-07T04:50:37;100644.44;;;18.31;68.91
74895;BME280;63447;49.446;8.666;2023-09-07T04:53:03;100646.69;;;18.22;68.46
74895;BME280;63447;49.446;8.666;2023-09-07T04:55:31;100649.38;;;18.15;69.70
74895;BME280;63447;49.446;8.666;2023-09-07T04:57:56;100644.59;;;18.16;69.53
74895;BME280;63447;49.446;8.666;2023-09-07T05:00:21;100651.84;;;18.20;69.85
74895;BME280;63447;49.446;8.666;2023-09-07T05:02:47;100641.28;;;18.07;70.05
74895;BME280;63447;49.446;8.666;2023-09-07T05:05:12;100646.09;;;18.10;70.40
74895;BME280;63447;49.446;8.666;2023-09-07T05:07:38;100643.38;;;18.13;70.12
74895;BME280;63447;49.446;8.666;2023-09-07T05:10:03;100637.03;;;18.16;71.19
74895;BME280;63447;49.446;8.666;2023-09-07T05:12:29;100635.41;;;18.15;70.76
74895;BME280;63447;49.446;8.666;2023-09-07T05:14:54;100642.25;;;18.18;70.70
74895;BME280;63447;49.446;8.666;2023-09-07T05:17:21;100641.09;;;18.22;70.60
74895;BME280;63447;49.446;8.666;2023-09-07T05:19:49;100652.25;;;18.19;71.03
74895;BME280;63447;49.446;8.666;2023-09-07T05:22:16;100640.19;;;18.15;71.30
74895;BME280;63447;49.446;8.666;2023-09-07T05:24:42;100642.56;;;18.13;71.44
74895;BME280;63447;49.446;8.666;2023-09-07T05:27:10;100647.66;;;18.07;71.52
74895;BME280;63447;49.446;8.666;2023-09-07T05:29:38;100660.94;;;18.14;70.80
74895;BME280;63447;49.446;8.666;2023-09-07T05:32:04;100651.69;;;18.10;70.65
74895;BME280;63447;49.446;8.666;2023-09-07T05:34:32;100663.19;;;18.05;71.21
74895;BME280;63447;49.446;8.666;2023-09-07T05:36:57;100660.00;;;18.06;71.07
74895;BME280;63447;49.446;8.666;2023-09-07T05:39:22;100664.72;;;18.02;71.87
74895;BME280;63447;49.446;8.666;2023-09-07T05:41:49;100670.34;;;17.79;72.82
74895;BME280;63447;49.446;8.666;2023-09-07T05:44:15;100658.13;;;17.87;72.83
74895;BME280;63447;49.446;8.666;2023-09-07T05:46:40;100666.19;;;17.92;72.87
74895;BME280;63447;49.446;8.666;2023-09-07T05:49:05;100672.72;;;17.77;72.81
74895;BME280;63447;49.446;8.666;2023-09-07T05:51:31;100678.34;;;17.81;73.21
74895;BME280;63447;49.446;8.666;2023-09-07T05:53:56;100667.25;;;17.84;72.41
74895;BME280;63447;49.446;8.666;2023-09-07T05:56:22;100676.56;;;17.92;72.54
74895;BME280;63447;49.446;8.666;2023-09-07T05:58:47;100683.09;;;18.03;72.68
74895;BME280;63447;49.446;8.666;2023-09-07T06:01:17;100684.03;;;18.11;71.64
74895;BME280;63447;49.446;8.666;2023-09-07T06:03:42;100679.69;;;18.13;71.86
74895;BME280;63447;49.446;8.666;2023-09-07T06:06:08;100674.03;;;18.10;72.69
74895;BME280;63447;49.446;8.666;2023-09-07T06:08:33;100682.72;;;18.05;72.97
74895;BME280;63447;49.446;8.666;2023-09-07T06:11:01;100679.38;;;18.22;72.22
74895;BME280;63447;49.446;8.666;2023-09-07T06:13:26;100691.66;;;18.40;71.87
74895;BME280;63447;49.446;8.666;2023-09-07T06:15:52;100679.00;;;18.50;71.23
74895;BME280;63447;49.446;8.666;2023-09-07T06:18:17;100683.16;;;18.59;71.31
74895;BME280;63447;49.446;8.666;2023-09-07T06:20:42;100687.31;;;18.73;70.67
74895;BME280;63447;49.446;8.666;2023-09-07T06:23:08;100681.41;;;18.78;70.91
74895;BME280;63447;49.446;8.666;2023-09-07T06:25:35;100684.53;;;18.73;72.10
74895;BME280;63447;49.446;8.666;2023-09-07T06:28:01;100687.41;;;18.80;71.70
74895;BME280;63447;49.446;8.666;2023-09-07T06:30:27;100685.56;;;18.91;72.20
74895;BME280;63447;49.446;8.666;2023-09-07T06:32:52;100687.75;;;19.08;70.85
74895;BME280;63447;49.446;8.666;2023-09-07T06:35:18;100691.84;;;19.14;70.21
74895;BME280;63447;49.446;8.666;2023-09-07T06:37:44;100691.50;;;19.23;70.31
74895;BME280;63447;49.446;8.666;2023-09-07T06:40:13;100690.38;;;19.27;71.80
74895;BME280;63447;49.446;8.666;2023-09-07T06:42:39;100695.41;;;19.48;70.09
74895;BME280;63447;49.446;8.666;2023-09-07T06:45:05;100686.66;;;19.53;68.92
74895;BME280;63447;49.446;8.666;2023-09-07T06:47:31;100685.94;;;19.60;69.30
74895;BME280;63447;49.446;8.666;2023-09-07T06:49:57;100692.50;;;19.75;70.19
74895;BME280;63447;49.446;8.666;2023-09-07T06:52:22;100686.97;;;19.85;68.91
74895;BME280;63447;49.446;8.666;2023-09-07T06:54:51;100689.88;;;19.96;67.71
74895;BME280;63447;49.446;8.666;2023-09-07T06:57:17;100697.66;;;20.20;68.85
74895;BME280;63447;49.446;8.666;2023-09-07T06:59:42;100700.59;;;20.38;67.31
74895;BME280;63447;49.446;8.666;2023-09-07T07:02:08;100690.66;;;20.48;66.68
74895;BME280;63447;49.446;8.666;2023-09-07T07:04:34;100700.31;;;20.61;66.73
74895;BME280;63447;49.446;8.666;2023-09-07T07:07:00;100695.97;;;20.67;66.92
74895;BME280;63447;49.446;8.666;2023-09-07T07:09:30;100699.22;;;20.80;66.51
74895;BME280;63447;49.446;8.666;2023-09-07T07:11:59;100696.44;;;20.87;65.94
74895;BME280;63447;49.446;8.666;2023-09-07T07:14:28;100696.94;;;21.03;65.88
74895;BME280;63447;49.446;8.666;2023-09-07T07:16:56;100700.16;;;21.16;65.16
74895;BME280;63447;49.446;8.666;2023-09-07T07:19:21;100703.44;;;21.32;66.09
74895;BME280;63447;49.446;8.666;2023-09-07T07:21:49;100702.31;;;21.54;65.66
74895;BME280;63447;49.446;8.666;2023-09-07T07:24:17;100700.69;;;21.60;64.36
74895;BME280;63447;49.446;8.666;2023-09-07T07:26:42;100701.53;;;21.68;63.67
74895;BME280;63447;49.446;8.666;2023-09-07T07:29:08;100696.72;;;21.90;65.95
74895;BME280;63447;49.446;8.666;2023-09-07T07:31:37;100703.56;;;22.14;64.72
74895;BME280;63447;49.446;8.666;2023-09-07T07:34:03;100697.13;;;22.27;63.75
74895;BME280;63447;49.446;8.666;2023-09-07T07:36:28;100703.97;;;22.33;62.32
74895;BME280;63447;49.446;8.666;2023-09-07T07:38:54;100687.84;;;22.48;63.11
74895;BME280;63447;49.446;8.666;2023-09-07T07:41:22;100660.53;;;22.38;61.06
74895;BME280;63447;49.446;8.666;2023-09-07T07:43:47;100697.81;;;22.71;61.25
74895;BME280;63447;49.446;8.666;2023-09-07T07:46:13;100696.63;;;22.79;60.57
74895;BME280;63447;49.446;8.666;2023-09-07T07:48:41;100706.59;;;22.97;59.27
74895;BME280;63447;49.446;8.666;2023-09-07T07:51:06;100710.19;;;23.05;58.67
74895;BME280;63447;49.446;8.666;2023-09-07T07:53:32;100698.47;;;23.14;58.86
74895;BME280;63447;49.446;8.666;2023-09-07T07:55:57;100704.44;;;23.33;59.01
74895;BME280;63447;49.446;8.666;2023-09-07T07:58:23;100696.69;;;23.45;59.42
74895;BME280;63447;49.446;8.666;2023-09-07T08:00:48;100704.97;;;23.77;59.11
74895;BME280;63447;49.446;8.666;2023-09-07T08:03:14;100685.59;;;23.82;57.41
74895;BME280;63447;49.446;8.666;2023-09-07T08:05:40;100699.97;;;23.95;56.58
74895;BME280;63447;49.446;8.666;2023-09-07T08:08:06;100704.44;;;23.92;56.25
74895;BME280;63447;49.446;8.666;2023-09-07T08:10:39;100696.56;;;24.18;56.05
74895;BME280;63447;49.446;8.666;2023-09-07T08:13:07;100695.31;;;24.26;55.26
74895;BME280;63447;49.446;8.666;2023-09-07T08:15:34;100695.31;;;24.26;54.86
74895;BME280;63447;49.446;8.666;2023-09-07T08:18:00;100700.41;;;24.42;53.69
74895;BME280;63447;49.446;8.666;2023-09-07T08:20:28;100700.31;;;24.49;52.95
74895;BME280;63447;49.446;8.666;2023-09-07T08:22:55;100684.19;;;24.49;53.19
74895;BME280;63447;49.446;8.666;2023-09-07T08:25:22;100698.16;;;24.63;52.53
74895;BME280;63447;49.446;8.666;2023-09-07T08:27:48;100699.38;;;24.62;51.86
74895;BME280;63447;49.446;8.666;2023-09-07T08:30:20;100705.78;;;24.66;50.35
74895;BME280;63447;49.446;8.666;2023-09-07T08:32:49;100702.47;;;24.72;50.81
74895;BME280;63447;49.446;8.666;2023-09-07T08:35:16;100706.19;;;24.65;50.15
74895;BME280;63447;49.446;8.666;2023-09-07T08:37:42;100705.81;;;24.63;49.44
74895;BME280;63447;49.446;8.666;2023-09-07T08:40:11;100686.69;;;24.78;49.67
74895;BME280;63447;49.446;8.666;2023-09-07T08:42:37;100700.97;;;24.97;50.03
74895;BME280;63447;49.446;8.666;2023-09-07T08:45:03;100701.75;;;25.01;49.38
74895;BME280;63447;49.446;8.666;2023-09-07T08:47:33;100700.41;;;25.13;50.23
74895;BME280;63447;49.446;8.666;2023-09-07T08:49:58;100693.31;;;25.28;49.18
74895;BME280;63447;49.446;8.666;2023-09-07T08:52:24;100705.84;;;25.27;48.67
74895;BME280;63447;49.446;8.666;2023-09-07T08:54:50;100705.78;;;25.31;48.49
74895;BME280;63447;49.446;8.666;2023-09-07T08:57:18;100694.16;;;25.25;47.87
74895;BME280;63447;49.446;8.666;2023-09-07T08:59:46;100696.91;;;25.32;47.57
74895;BME280;63447;49.446;8.666;2023-09-07T09:02:11;100704.91;;;25.38;46.51
74895;BME280;63447;49.446;8.666;2023-09-07T09:04:39;100711.19;;;25.49;47.36
74895;BME280;63447;49.446;8.666;2023-09-07T09:07:04;100703.84;;;25.55;47.59
74895;BME280;63447;49.446;8.666;2023-09-07T09:09:32;100694.84;;;25.63;47.82
74895;BME280;63447;49.446;8.666;2023-09-07T09:12:11;100705.19;;;25.74;47.54
74895;BME280;63447;49.446;8.666;2023-09-07T09:14:38;100694.56;;;25.81;46.34
74895;BME280;63447;49.446;8.666;2023-09-07T09:17:11;100695.69;;;25.87;46.91
74895;BME280;63447;49.446;8.666;2023-09-07T09:19:36;100702.94;;;26.12;47.15
74895;BME280;63447;49.446;8.666;2023-09-07T09:22:04;100691.16;;;26.17;46.72
74895;BME280;63447;49.446;8.666;2023-09-07T09:24:33;100692.97;;;26.27;46.78
74895;BME280;63447;49.446;8.666;2023-09-07T09:27:02;100690.72;;;26.42;46.43
74895;BME280;63447;49.446;8.666;2023-09-07T09:29:29;100676.34;;;26.52;46.97
74895;BME280;63447;49.446;8.666;2023-09-07T09:31:54;100676.69;;;26.34;47.38
74895;BME280;63447;49.446;8.666;2023-09-07T09:34:20;100685.44;;;26.83;46.62
74895;BME280;63447;49.446;8.666;2023-09-07T09:36:48;100687.59;;;26.99;45.48
74895;BME280;63447;49.446;8.666;2023-09-07T09:39:24;100680.84;;;27.29;44.71
74895;BME280;63447;49.446;8.666;2023-09-07T09:41:50;100671.81;;;27.34;44.71
74895;BME280;63447;49.446;8.666;2023-09-07T09:44:16;100679.88;;;27.19;43.47
74895;BME280;63447;49.446;8.666;2023-09-07T09:46:43;100665.28;;;27.37;44.26
74895;BME280;63447;49.446;8.666;2023-09-07T09:49:10;100672.13;;;27.56;44.51
74895;BME280;63447;49.446;8.666;2023-09-07T09:51:39;100665.78;;;27.68;42.53
74895;BME280;63447;49.446;8.666;2023-09-07T09:54:04;100654.72;;;27.74;43.15
74895;BME280;63447;49.446;8.666;2023-09-07T09:56:31;100655.59;;;27.87;42.69
74895;BME280;63447;49.446;8.666;2023-09-07T09:58:58;100667.31;;;28.05;42.77
74895;BME280;63447;49.446;8.666;2023-09-07T10:01:24;100638.94;;;28.05;42.96
74895;BME280;63447;49.446;8.666;2023-09-07T10:03:50;100663.28;;;28.19;41.52
74895;BME280;63447;49.446;8.666;2023-09-07T10:06:24;100650.13;;;28.41;41.81
74895;BME280;63447;49.446;8.666;2023-09-07T10:08:55;100654.63;;;27.93;41.18
74895;BME280;63447;49.446;8.666;2023-09-07T10:11:30;100639.19;;;28.27;41.17
74895;BME280;63447;49.446;8.666;2023-09-07T10:13:57;100642.31;;;28.45;40.30
74895;BME280;63447;49.446;8.666;2023-09-07T10:16:23;100635.81;;;28.74;41.77
74895;BME280;63447;49.446;8.666;2023-09-07T10:18:52;100625.50;;;28.80;41.63
74895;BME280;63447;49.446;8.666;2023-09-07T10:21:17;100632.41;;;29.08;41.03
74895;BME280;63447;49.446;8.666;2023-09-07T10:23:44;100631.25;;;28.63;40.65
74895;BME280;63447;49.446;8.666;2023-09-07T10:26:18;100619.34;;;29.35;39.50
74895;BME280;63447;49.446;8.666;2023-09-07T10:28:46;100613.28;;;29.84;37.88
74895;BME280;63447;49.446;8.666;2023-09-07T10:31:19;100620.28;;;29.92;37.69
74895;BME280;63447;49.446;8.666;2023-09-07T10:33:45;100611.34;;;30.16;38.71
74895;BME280;63447;49.446;8.666;2023-09-07T10:36:25;100622.84;;;30.25;38.69
74895;BME280;63447;49.446;8.666;2023-09-07T10:38:55;100615.38;;;29.46;38.18
74895;BME280;63447;49.446;8.666;2023-09-07T10:41:25;100616.16;;;29.46;38.56
74895;BME280;63447;49.446;8.666;2023-09-07T10:43:52;100614.63;;;29.80;38.30
74895;BME280;63447;49.446;8.666;2023-09-07T10:46:24;100610.09;;;30.17;38.83
74895;BME280;63447;49.446;8.666;2023-09-07T10:48:50;100611.56;;;30.56;38.11
74895;BME280;63447;49.446;8.666;2023-09-07T10:51:17;100610.03;;;30.64;36.97
74895;BME280;63447;49.446;8.666;2023-09-07T10:53:42;100613.59;;;30.77;35.31
74895;BME280;63447;49.446;8.666;2023-09-07T10:56:07;100606.09;;;30.49;36.19
74895;BME280;63447;49.446;8.666;2023-09-07T10:58:35;100606.31;;;31.07;35.23
74895;BME280;63447;49.446;8.666;2023-09-07T11:01:01;100605.00;;;30.99;34.14
74895;BME280;63447;49.446;8.666;2023-09-07T11:03:28;100607.09;;;30.55;34.09
74895;BME280;63447;49.446;8.666;2023-09-07T11:06:05;100595.38;;;30.75;32.42
74895;BME280;63447;49.446;8.666;2023-09-07T11:08:32;100596.19;;;31.06;32.48
74895;BME280;63447;49.446;8.666;2023-09-07T11:11:03;100591.31;;;31.56;30.99
74895;BME280;63447;49.446;8.666;2023-09-07T11:13:29;100594.28;;;32.11;30.94
74895;BME280;63447;49.446;8.666;2023-09-07T11:15:58;100578.72;;;32.57;31.34
74895;BME280;63447;49.446;8.666;2023-09-07T11:18:24;100576.53;;;32.34;31.86
74895;BME280;63447;49.446;8.666;2023-09-07T11:20:52;100586.63;;;30.91;31.47
74895;BME280;63447;49.446;8.666;2023-09-07T11:23:18;100580.16;;;31.30;31.69
74895;BME280;63447;49.446;8.666;2023-09-07T11:25:45;100579.06;;;32.04;32.42
74895;BME280;63447;49.446;8.666;2023-09-07T11:28:11;100533.22;;;32.45;31.09
74895;BME280;63447;49.446;8.666;2023-09-07T11:30:37;100576.13;;;32.96;31.15
74895;BME280;63447;49.446;8.666;2023-09-07T11:33:18;100559.38;;;31.79;30.12
74895;BME280;63447;49.446;8.666;2023-09-07T11:35:45;100566.84;;;33.01;29.31
74895;BME280;63447;49.446;8.666;2023-09-07T11:38:13;100562.38;;;32.58;30.02
74895;BME280;63447;49.446;8.666;2023-09-07T11:40:39;100566.50;;;32.02;31.56
74895;BME280;63447;49.446;8.666;2023-09-07T11:43:04;100574.63;;;32.40;31.08
74895;BME280;63447;49.446;8.666;2023-09-07T11:45:30;100570.63;;;33.16;30.87
74895;BME280;63447;49.446;8.666;2023-09-07T11:47:57;100575.31;;;33.37;29.44
74895;BME280;63447;49.446;8.666;2023-09-07T11:50:23;100569.44;;;33.65;29.37
74895;BME280;63447;49.446;8.666;2023-09-07T11:52:49;100577.16;;;33.08;28.09
74895;BME280;63447;49.446;8.666;2023-09-07T11:55:15;100578.41;;;31.82;30.02
74895;BME280;63447;49.446;8.666;2023-09-07T11:57:43;100578.09;;;31.80;29.37
74895;BME280;63447;49.446;8.666;2023-09-07T12:00:08;100575.06;;;32.02;28.81
74895;BME280;63447;49.446;8.666;2023-09-07T12:02:39;100571.63;;;32.44;28.46
74895;BME280;63447;49.446;8.666;2023-09-07T12:05:06;100562.84;;;33.50;28.75
74895;BME280;63447;49.446;8.666;2023-09-07T12:07:38;100565.09;;;33.69;27.85
74895;BME280;63447;49.446;8.666;2023-09-07T12:10:06;100566.31;;;33.54;28.10
74895;BME280;63447;49.446;8.666;2023-09-07T12:12:39;100565.94;;;34.47;26.88
74895;BME280;63447;49.446;8.666;2023-09-07T12:15:08;100554.78;;;34.49;25.76
74895;BME280;63447;49.446;8.666;2023-09-07T12:17:38;100548.50;;;33.83;25.19
74895;BME280;63447;49.446;8.666;2023-09-07T12:20:07;100544.28;;;33.69;25.06
74895;BME280;63447;49.446;8.666;2023-09-07T12:22:38;100561.72;;;32.72;26.66
74895;BME280;63447;49.446;8.666;2023-09-07T12:25:07;100542.69;;;32.60;26.38
74895;BME280;63447;49.446;8.666;2023-09-07T12:27:36;100547.00;;;33.40;26.40
74895;BME280;63447;49.446;8.666;2023-09-07T12:30:03;100545.59;;;31.87;27.88
74895;BME280;63447;49.446;8.666;2023-09-07T12:32:31;100523.06;;;32.34;27.82
74895;BME280;63447;49.446;8.666;2023-09-07T12:34:57;100518.88;;;32.63;27.63
74895;BME280;63447;49.446;8.666;2023-09-07T12:37:22;100534.94;;;33.02;27.42
74895;BME280;63447;49.446;8.666;2023-09-07T12:39:49;100533.28;;;33.20;26.22
74895;BME280;63447;49.446;8.666;2023-09-07T12:42:14;100525.06;;;32.52;26.47
74895;BME280;63447;49.446;8.666;2023-09-07T12:44:42;100539.41;;;32.07;27.79
74895;BME280;63447;49.446;8.666;2023-09-07T12:47:10;100535.13;;;32.29;27.26
74895;BME280;63447;49.446;8.666;2023-09-07T12:49:35;100527.44;;;32.54;27.75